createdAt,value
2018-09-12T04:58:18.488Z,15.70
2018-09-12T05:00:46.741Z,15.70
2018-09-12T05:03:14.984Z,15.70
2018-09-12T05:05:43.206Z,15.70
2018-09-12T05:08:11.456Z,15.70
2018-09-12T05:10:39.688Z,15.60
2018-09-12T05:13:07.903Z,15.60
2018-09-12T05:15:36.147Z,15.60
2018-09-12T05:18:04.387Z,15.60
2018-09-12T05:20:32.633Z,15.60
2018-09-12T05:23:00.867Z,15.70
2018-09-12T05:25:29.134Z,15.70
2018-09-12T05:27:57.354Z,15.70
2018-09-12T05:30:25.591Z,15.70
2018-09-12T05:32:53.805Z,15.80
2018-09-12T05:35:22.041Z,15.90
2018-09-12T05:37:50.264Z,15.90
2018-09-12T05:40:18.517Z,16.00
2018-09-12T05:42:46.759Z,16.00
2018-09-12T05:45:14.994Z,16.10
2018-09-12T05:47:43.212Z,16.10
2018-09-12T05:50:11.478Z,16.30
2018-09-12T05:52:39.721Z,16.30
2018-09-12T05:55:07.975Z,16.50
2018-09-12T05:57:37.135Z,16.50
2018-09-12T06:00:05.964Z,16.60
2018-09-12T06:02:34.192Z,16.70
2018-09-12T06:05:02.416Z,16.80
2018-09-12T06:07:30.635Z,16.90
2018-09-12T06:09:58.869Z,17.20
2018-09-12T06:12:27.084Z,17.50
2018-09-12T06:14:55.309Z,17.90
2018-09-12T06:17:23.532Z,18.20
2018-09-12T06:19:51.772Z,18.40
2018-09-12T06:22:20.072Z,18.50
2018-09-12T06:24:48.316Z,18.60
2018-09-12T06:27:16.546Z,18.80
2018-09-12T06:29:44.771Z,18.90
2018-09-12T06:32:12.979Z,19.10
2018-09-12T06:34:41.204Z,19.10
2018-09-12T06:37:09.479Z,19.30
2018-09-12T06:39:37.721Z,19.40
2018-09-12T06:42:05.924Z,19.60
2018-09-12T06:44:34.163Z,19.80
2018-09-12T06:47:02.383Z,20.10
2018-09-12T06:49:30.610Z,20.30
2018-09-12T06:51:58.828Z,20.70
2018-09-12T06:54:27.060Z,21.00
2018-09-12T06:56:55.294Z,21.10
2018-09-12T06:59:23.558Z,21.20
2018-09-12T07:01:51.771Z,21.40
2018-09-12T07:04:20.009Z,21.50
2018-09-12T07:06:48.232Z,21.30
2018-09-12T07:09:16.476Z,21.30
2018-09-12T07:11:44.704Z,21.30
2018-09-12T07:14:12.971Z,21.30
2018-09-12T07:16:41.177Z,21.50
2018-09-12T07:19:09.423Z,21.50
2018-09-12T07:21:37.674Z,21.60
2018-09-12T07:24:05.924Z,21.70
2018-09-12T07:26:34.152Z,21.70
2018-09-12T07:29:02.363Z,21.80
2018-09-12T07:31:30.594Z,21.90
2018-09-12T07:33:58.809Z,22.10
2018-09-12T07:36:27.040Z,22.20
2018-09-12T07:38:55.553Z,22.30
2018-09-12T07:41:23.797Z,22.50
2018-09-12T07:43:52.083Z,22.50
2018-09-12T07:46:20.315Z,22.60
2018-09-12T07:48:48.532Z,22.70
2018-09-12T07:51:16.777Z,22.80
2018-09-12T07:53:44.992Z,22.90
2018-09-12T07:56:13.269Z,23.00
2018-09-12T07:58:41.500Z,23.20
2018-09-12T08:01:09.751Z,23.30
2018-09-12T08:03:37.967Z,23.60
2018-09-12T08:06:06.468Z,23.70
2018-09-12T08:08:34.680Z,23.90
2018-09-12T08:11:02.916Z,23.90
2018-09-12T08:13:31.133Z,24.00
2018-09-12T08:15:59.381Z,24.10
2018-09-12T08:18:27.591Z,24.20
2018-09-12T08:20:55.841Z,24.20
2018-09-12T08:23:24.068Z,24.20
2018-09-12T08:25:52.287Z,24.40
2018-09-12T08:28:20.497Z,24.40
2018-09-12T08:30:48.728Z,24.60
2018-09-12T08:33:17.038Z,24.70
2018-09-12T08:35:45.264Z,24.80
2018-09-12T08:38:13.464Z,24.90
2018-09-12T08:40:41.695Z,24.90
2018-09-12T08:43:09.903Z,24.90
2018-09-12T08:45:38.127Z,25.00
2018-09-12T08:48:06.371Z,25.20
2018-09-12T08:50:34.614Z,25.20
2018-09-12T08:53:02.926Z,25.30
2018-09-12T08:55:31.084Z,25.40
2018-09-12T08:57:59.288Z,25.50
2018-09-12T09:00:33.048Z,25.60
2018-09-12T09:03:01.335Z,25.70
2018-09-12T09:05:29.632Z,25.80
2018-09-12T09:07:57.916Z,25.80
2018-09-12T09:10:26.156Z,25.80
2018-09-12T09:12:55.296Z,25.90
2018-09-12T09:15:23.536Z,26.10
2018-09-12T09:17:51.813Z,26.10
2018-09-12T09:20:20.037Z,26.10
2018-09-12T09:22:48.348Z,26.10
2018-09-12T09:25:16.595Z,26.10
2018-09-12T09:27:45.054Z,26.10
2018-09-12T09:30:13.279Z,26.10
2018-09-12T09:32:41.776Z,26.30
2018-09-12T09:35:10.321Z,26.30
2018-09-12T09:37:39.252Z,26.40
2018-09-12T09:40:08.283Z,26.40
2018-09-12T09:42:36.679Z,26.30
2018-09-12T09:45:05.121Z,26.40
2018-09-12T09:47:33.447Z,26.50
2018-09-12T09:50:01.670Z,26.50
2018-09-12T09:52:29.915Z,26.50
2018-09-12T09:54:58.178Z,26.60
2018-09-12T09:57:26.394Z,26.70
2018-09-12T09:59:54.605Z,26.70
2018-09-12T10:02:28.380Z,26.80
2018-09-12T10:05:01.952Z,27.00
2018-09-12T10:07:35.421Z,27.00
2018-09-12T10:10:04.271Z,27.00
2018-09-12T10:12:33.076Z,27.00
2018-09-12T10:15:02.348Z,27.00
2018-09-12T10:17:30.604Z,27.20
2018-09-12T10:19:59.040Z,27.20
2018-09-12T10:22:27.301Z,27.10
2018-09-12T10:24:55.516Z,27.30
2018-09-12T10:27:23.739Z,27.20
2018-09-12T10:29:52.009Z,27.20
2018-09-12T10:32:20.239Z,27.30
2018-09-12T10:34:48.447Z,27.30
2018-09-12T10:37:17.678Z,27.30
2018-09-12T10:39:45.919Z,27.30
2018-09-12T10:42:14.149Z,27.40
2018-09-12T10:44:42.795Z,27.30
2018-09-12T10:47:11.036Z,27.50
2018-09-12T10:49:39.247Z,27.50
2018-09-12T10:52:07.477Z,27.60
2018-09-12T10:54:35.696Z,27.70
2018-09-12T10:57:03.916Z,27.60
2018-09-12T10:59:32.134Z,27.60
2018-09-12T11:02:00.341Z,27.60
2018-09-12T11:04:28.721Z,27.80
2018-09-12T11:06:56.897Z,27.80
2018-09-12T11:09:25.158Z,27.90
2018-09-12T11:11:53.385Z,28.10
2018-09-12T11:14:21.624Z,28.10
2018-09-12T11:16:49.838Z,28.20
2018-09-12T11:19:18.085Z,28.20
2018-09-12T11:21:46.332Z,28.40
2018-09-12T11:24:14.566Z,28.30
2018-09-12T11:26:42.808Z,28.40
2018-09-12T11:29:11.061Z,28.50
2018-09-12T11:31:39.280Z,28.50
2018-09-12T11:34:07.556Z,28.50
2018-09-12T11:36:35.744Z,28.60
2018-09-12T11:39:05.983Z,28.60
2018-09-12T11:41:34.203Z,28.50
2018-09-12T11:44:02.426Z,28.70
2018-09-12T11:46:30.637Z,28.70
2018-09-12T11:48:58.926Z,28.70
2018-09-12T11:51:27.123Z,28.90
2018-09-12T11:53:55.374Z,29.00
2018-09-12T11:56:23.627Z,29.20
2018-09-12T11:58:51.852Z,29.20
2018-09-12T12:01:20.129Z,29.10
2018-09-12T12:03:48.360Z,29.00
2018-09-12T12:06:16.588Z,28.80
2018-09-12T12:08:44.822Z,28.90
2018-09-12T12:11:13.167Z,28.70
2018-09-12T12:13:41.380Z,28.60
2018-09-12T12:16:09.585Z,28.60
2018-09-12T12:18:37.817Z,28.40
2018-09-12T12:21:06.092Z,28.40
2018-09-12T12:23:34.356Z,28.60
2018-09-12T12:26:02.584Z,28.50
2018-09-12T12:28:30.865Z,28.60
2018-09-12T12:30:59.084Z,28.70
2018-09-12T12:33:27.324Z,28.80
2018-09-12T12:35:55.537Z,28.80
2018-09-12T12:38:23.781Z,28.90
2018-09-12T12:40:52.001Z,29.00
2018-09-12T12:43:20.236Z,28.90
2018-09-12T12:45:48.443Z,28.80
2018-09-12T12:48:16.681Z,28.80
2018-09-12T12:50:44.905Z,28.80
2018-09-12T12:53:13.161Z,28.70
2018-09-12T12:55:41.385Z,28.50
2018-09-12T12:58:09.592Z,28.40
2018-09-12T13:00:37.810Z,28.20
2018-09-12T13:03:06.015Z,28.30
2018-09-12T13:05:34.303Z,28.50
2018-09-12T13:08:02.493Z,28.60
2018-09-12T13:10:30.733Z,28.70
2018-09-12T13:12:58.950Z,28.70
2018-09-12T13:15:27.217Z,28.60
2018-09-12T13:17:55.648Z,28.60
2018-09-12T13:20:23.867Z,28.70
2018-09-12T13:22:52.099Z,28.70
2018-09-12T13:25:20.337Z,28.70
2018-09-12T13:27:48.619Z,28.70
2018-09-12T13:30:16.849Z,28.80
2018-09-12T13:32:45.084Z,28.70
2018-09-12T13:35:13.332Z,28.70
2018-09-12T13:37:41.550Z,28.70
2018-09-12T13:40:09.795Z,28.80
2018-09-12T13:42:38.119Z,28.70
2018-09-12T13:45:06.364Z,28.70
2018-09-12T13:47:34.593Z,28.70
2018-09-12T13:50:02.828Z,28.70
2018-09-12T13:52:31.136Z,28.80
2018-09-12T13:54:59.369Z,28.90
2018-09-12T13:57:27.583Z,28.90
2018-09-12T13:59:55.829Z,28.80
2018-09-12T14:02:24.076Z,28.60
2018-09-12T14:04:52.319Z,28.70
2018-09-12T14:07:20.530Z,28.70
2018-09-12T14:09:48.763Z,28.80
2018-09-12T14:12:16.984Z,28.80
2018-09-12T14:14:45.218Z,28.90
2018-09-12T14:17:13.446Z,28.90
2018-09-12T14:19:41.689Z,28.90
2018-09-12T14:22:09.997Z,28.90
2018-09-12T14:24:38.241Z,28.80
2018-09-12T14:27:06.452Z,28.80
2018-09-12T14:29:34.687Z,28.80
2018-09-12T14:32:02.953Z,28.80
2018-09-12T14:34:31.177Z,28.70
2018-09-12T14:36:59.391Z,28.60
2018-09-12T14:39:27.693Z,28.60
2018-09-12T14:41:55.872Z,28.50
2018-09-12T14:44:24.099Z,28.40
2018-09-12T14:46:52.331Z,28.20
2018-09-12T14:49:20.533Z,28.00
2018-09-12T14:51:48.817Z,27.70
2018-09-12T14:54:17.021Z,27.60
2018-09-12T14:56:45.258Z,27.60
2018-09-12T14:59:13.479Z,27.70
2018-09-12T15:01:41.704Z,27.90
2018-09-12T15:04:09.904Z,27.90
2018-09-12T15:06:38.133Z,27.90
2018-09-12T15:09:08.769Z,27.90
2018-09-12T15:11:37.013Z,27.90
2018-09-12T15:14:05.275Z,27.90
2018-09-12T15:16:34.773Z,27.90
2018-09-12T15:19:03.083Z,27.90
2018-09-12T15:21:31.346Z,27.80
2018-09-12T15:23:59.691Z,27.80
2018-09-12T15:26:27.911Z,27.70
2018-09-12T15:28:56.116Z,27.60
2018-09-12T15:31:24.447Z,27.50
2018-09-12T15:33:52.664Z,27.50
2018-09-12T15:36:20.889Z,27.40
2018-09-12T15:38:49.101Z,27.40
2018-09-12T15:41:17.373Z,27.40
2018-09-12T15:43:45.561Z,27.30
2018-09-12T15:46:13.788Z,27.30
2018-09-12T15:48:42.016Z,27.30
2018-09-12T15:51:10.254Z,27.20
2018-09-12T15:53:38.464Z,27.00
2018-09-12T15:56:06.689Z,26.80
2018-09-12T15:58:34.892Z,26.50
2018-09-12T16:01:03.133Z,26.30
2018-09-12T16:03:31.331Z,26.10
2018-09-12T16:05:59.627Z,26.00
2018-09-12T16:08:27.841Z,25.70
2018-09-12T16:10:56.081Z,25.70
2018-09-12T16:13:24.296Z,25.50
2018-09-12T16:15:52.522Z,25.40
2018-09-12T16:18:20.744Z,25.20
2018-09-12T16:20:49.821Z,25.10
2018-09-12T16:23:18.036Z,25.10
2018-09-12T16:25:46.274Z,25.10
2018-09-12T16:28:14.505Z,25.00
2018-09-12T16:30:42.732Z,24.90
2018-09-12T16:33:10.956Z,24.70
2018-09-12T16:35:39.189Z,24.50
2018-09-12T16:38:07.407Z,24.30
2018-09-12T16:40:35.660Z,24.20
2018-09-12T16:43:03.897Z,24.10
2018-09-12T16:45:32.108Z,23.90
2018-09-12T16:48:00.343Z,23.70
2018-09-12T16:50:28.591Z,23.60
2018-09-12T16:52:56.815Z,23.40
2018-09-12T16:55:25.041Z,23.20
2018-09-12T16:57:53.275Z,23.10
2018-09-12T17:00:21.486Z,22.90
2018-09-12T17:02:49.770Z,22.80
2018-09-12T17:05:17.971Z,22.60
2018-09-12T17:07:46.204Z,22.50
2018-09-12T17:10:14.427Z,22.30
2018-09-12T17:12:42.687Z,22.10
2018-09-12T17:15:10.935Z,21.90
2018-09-12T17:17:39.168Z,21.80
2018-09-12T17:20:07.498Z,21.60
2018-09-12T17:22:35.756Z,21.50
2018-09-12T17:25:03.983Z,21.40
2018-09-12T17:27:32.224Z,21.20
2018-09-12T17:30:00.468Z,21.10
2018-09-12T17:32:28.728Z,21.00
2018-09-12T17:34:57.092Z,20.90
2018-09-12T17:37:25.328Z,20.70
2018-09-12T17:39:53.535Z,20.50
2018-09-12T17:42:21.771Z,20.40
2018-09-12T17:44:49.983Z,20.20
2018-09-12T17:47:18.203Z,20.10
2018-09-12T17:49:46.408Z,19.90
2018-09-12T17:52:14.631Z,19.80
2018-09-12T17:54:42.863Z,19.70
2018-09-12T17:57:11.106Z,19.60
2018-09-12T17:59:39.337Z,19.50
2018-09-12T18:02:07.564Z,19.40
2018-09-12T18:04:35.763Z,19.30
2018-09-12T18:07:03.992Z,19.20
2018-09-12T18:09:32.211Z,19.10
2018-09-12T18:12:00.435Z,19.10
2018-09-12T18:14:28.656Z,19.00
2018-09-12T18:16:56.877Z,18.90
2018-09-12T18:19:25.079Z,18.80
2018-09-12T18:21:53.347Z,18.70
2018-09-12T18:24:21.621Z,18.60
2018-09-12T18:26:49.814Z,18.50
2018-09-12T18:29:18.515Z,18.50
2018-09-12T18:31:46.764Z,18.40
2018-09-12T18:34:14.981Z,18.30
2018-09-12T18:36:43.212Z,18.30
2018-09-12T18:39:11.701Z,18.20
2018-09-12T18:41:39.928Z,18.20
2018-09-12T18:44:08.525Z,18.10
2018-09-12T18:46:36.742Z,18.10
2018-09-12T18:49:04.985Z,18.00
2018-09-12T18:51:33.203Z,18.00
2018-09-12T18:54:01.459Z,17.90
2018-09-12T18:56:29.676Z,17.80
2018-09-12T18:58:57.896Z,17.80
2018-09-12T19:01:26.116Z,17.70
2018-09-12T19:03:54.336Z,17.60
2018-09-12T19:06:22.556Z,17.60
2018-09-12T19:08:50.785Z,17.50
2018-09-12T19:11:19.037Z,17.40
2018-09-12T19:13:47.263Z,17.40
2018-09-12T19:16:15.485Z,17.30
2018-09-12T19:18:44.035Z,17.20
2018-09-12T19:21:12.204Z,17.20
2018-09-12T19:23:40.461Z,17.10
2018-09-12T19:26:08.816Z,17.10
2018-09-12T19:28:37.141Z,17.00
2018-09-12T19:31:05.348Z,17.00
2018-09-12T19:33:33.585Z,16.90
2018-09-12T19:36:01.919Z,16.90
2018-09-12T19:38:30.083Z,16.80
2018-09-12T19:40:58.287Z,16.80
2018-09-12T19:43:26.511Z,16.70
2018-09-12T19:45:54.716Z,16.70
2018-09-12T19:48:22.936Z,16.60
2018-09-12T19:50:51.141Z,16.60
2018-09-12T19:53:19.359Z,16.50
2018-09-12T19:55:47.564Z,16.50
2018-09-12T19:58:15.788Z,16.40
2018-09-12T20:00:43.992Z,16.40
2018-09-12T20:03:12.217Z,16.40
2018-09-12T20:05:40.423Z,16.30
2018-09-12T20:08:08.648Z,16.30
2018-09-12T20:10:36.856Z,16.20
2018-09-12T20:13:05.176Z,16.20
2018-09-12T20:15:33.376Z,16.20
2018-09-12T20:18:01.613Z,16.10
2018-09-12T20:20:29.845Z,16.10
2018-09-12T20:22:58.120Z,16.10
2018-09-12T20:25:26.335Z,16.00
2018-09-12T20:27:54.556Z,16.00
